Time;durP1;ratioP1;P1;durP2;ratioP2;P2;SDS_P1;SDS_P2;PMS_P1;PMS_P2;Temp;Humidity;BMP_temperature;BMP_pressure;BME280_temperature;BME280_humidity;BME280_pressure;Samples;Min_cycle;Max_cycle;Signal;HPM_P1;HPM_P2
2023/04/25 00:01:13;;;;;;;8.20;2.57;;;8.40;99.90;;;;;;5068114;28;20435;-71
2023/04/25 00:03:38;;;;;;;4.30;2.50;;;8.40;99.90;;;;;;5073330;28;20513;-71
2023/04/25 00:06:04;;;;;;;3.87;2.13;;;8.10;99.90;;;;;;5074546;28;20461;-71
2023/04/25 00:08:30;;;;;;;7.43;2.47;;;8.20;99.90;;;;;;5075692;28;20536;-71
2023/04/25 00:10:59;;;;;;;2.90;2.30;;;8.30;99.90;;;;;;5075569;28;20504;-71
2023/04/25 00:13:25;;;;;;;2.90;2.40;;;8.30;99.90;;;;;;5075176;28;20458;-71
2023/04/25 00:15:52;;;;;;;3.30;2.40;;;8.30;99.90;;;;;;5074392;28;20507;-72
2023/04/25 00:18:19;;;;;;;2.90;2.10;;;8.30;99.90;;;;;;5074636;28;20921;-71
2023/04/25 00:20:46;;;;;;;3.90;2.43;;;8.30;99.90;;;;;;5089176;28;20430;-71
2023/04/25 00:23:17;;;;;;;2.60;2.10;;;8.30;99.90;;;;;;5072802;28;20417;-71
2023/04/25 00:25:46;;;;;;;3.77;2.40;;;8.30;99.90;;;;;;5074107;28;20486;-72
2023/04/25 00:28:12;;;;;;;9.87;3.00;;;8.40;99.90;;;;;;5073579;28;20508;-72
2023/04/25 00:30:39;;;;;;;3.33;2.20;;;8.60;99.90;;;;;;5072366;28;20448;-72
2023/04/25 00:33:05;;;;;;;2.23;1.93;;;8.50;99.90;;;;;;5071514;28;20436;-72
2023/04/25 00:35:30;;;;;;;7.43;2.77;;;8.60;99.90;;;;;;5087127;28;20485;-72
2023/04/25 00:37:56;;;;;;;3.57;2.53;;;8.70;99.90;;;;;;5071996;28;20425;-72
2023/04/25 00:40:21;;;;;;;4.00;2.90;;;8.70;99.90;;;;;;5075608;28;20271;-72
2023/04/25 00:42:47;;;;;;;2.60;2.07;;;8.70;99.90;;;;;;5075435;28;20188;-71
2023/04/25 00:45:17;;;;;;;2.10;1.73;;;8.80;99.90;;;;;;5073429;28;20640;-71
2023/04/25 00:47:43;;;;;;;3.70;2.30;;;8.80;99.90;;;;;;5073126;28;20182;-72
2023/04/25 00:50:10;;;;;;;5.17;2.37;;;8.80;99.90;;;;;;5072410;28;20424;-71
2023/04/25 00:52:39;;;;;;;3.80;2.70;;;8.90;99.90;;;;;;5072555;28;20435;-72
2023/04/25 00:55:06;;;;;;;5.00;2.20;;;8.80;99.90;;;;;;5087918;28;20487;-71
2023/04/25 00:57:31;;;;;;;3.23;2.27;;;8.90;99.90;;;;;;5072405;28;20424;-71
2023/04/25 00:59:58;;;;;;;4.17;2.30;;;8.90;99.90;;;;;;5072395;28;20433;-69
2023/04/25 01:02:26;;;;;;;2.87;2.40;;;8.70;99.90;;;;;;5072315;28;20187;-71
2023/04/25 01:04:52;;;;;;;2.70;1.80;;;8.90;99.90;;;;;;5072118;28;20464;-71
2023/04/25 01:07:18;;;;;;;3.97;2.20;;;8.90;99.90;;;;;;5070792;28;20896;-72
2023/04/25 01:09:44;;;;;;;6.67;2.47;;;8.90;99.90;;;;;;5071982;28;20417;-71
2023/04/25 01:12:09;;;;;;;6.10;3.00;;;9.00;99.90;;;;;;5072211;28;20190;-72
2023/04/25 01:14:35;;;;;;;3.10;2.80;;;8.90;99.90;;;;;;5071878;28;20678;-71
2023/04/25 01:17:01;;;;;;;4.67;2.37;;;8.90;99.90;;;;;;5072061;28;20720;-71
2023/04/25 01:19:27;;;;;;;1.80;1.70;;;8.90;99.90;;;;;;5071859;28;20685;-72
2023/04/25 01:21:52;;;;;;;6.03;2.83;;;9.00;99.90;;;;;;5071875;28;20413;-71
2023/04/25 01:24:18;;;;;;;4.57;2.47;;;8.90;99.90;;;;;;5071496;28;20191;-71
2023/04/25 01:26:49;;;;;;;4.40;2.27;;;8.90;99.90;;;;;;5071556;28;20567;-70
2023/04/25 01:29:19;;;;;;;3.30;2.00;;;8.90;99.90;;;;;;5069833;28;20190;-71
2023/04/25 01:31:45;;;;;;;6.00;2.57;;;8.80;99.90;;;;;;5071430;28;20494;-71
2023/04/25 01:34:12;;;;;;;3.57;2.40;;;8.80;99.90;;;;;;5071258;28;20498;-71
2023/04/25 01:36:37;;;;;;;3.10;2.30;;;8.70;99.90;;;;;;5071156;28;20533;-71
2023/04/25 01:39:03;;;;;;;2.60;2.17;;;8.70;99.90;;;;;;5071308;28;20920;-70
2023/04/25 01:41:29;;;;;;;3.67;2.10;;;8.70;99.90;;;;;;5071207;28;20288;-71
2023/04/25 01:43:55;;;;;;;6.80;2.97;;;8.70;99.90;;;;;;5070981;28;20203;-71
2023/04/25 01:46:21;;;;;;;5.03;2.20;;;8.70;99.90;;;;;;5069633;28;20434;-71
2023/04/25 01:48:47;;;;;;;4.10;2.17;;;8.70;99.90;;;;;;5070457;28;20424;-71
2023/04/25 01:51:12;;;;;;;3.23;2.63;;;8.70;99.90;;;;;;5071151;28;20425;-71
2023/04/25 01:53:39;;;;;;;3.80;2.27;;;8.70;99.90;;;;;;5071063;28;20267;-71
2023/04/25 01:56:05;;;;;;;3.20;2.30;;;8.70;99.90;;;;;;5086216;28;20219;-71
2023/04/25 01:58:31;;;;;;;2.10;1.70;;;8.70;99.90;;;;;;5071175;28;20422;-70
2023/04/25 02:00:56;;;;;;;5.43;2.40;;;8.70;99.90;;;;;;5071031;28;20429;-69
2023/04/25 02:03:22;;;;;;;5.67;2.60;;;8.70;99.90;;;;;;5070691;28;20183;-71
2023/04/25 02:05:48;;;;;;;12.53;2.73;;;8.70;99.90;;;;;;5070749;28;20248;-70
2023/04/25 02:08:14;;;;;;;7.37;2.83;;;8.60;99.90;;;;;;5070850;28;20183;-71
2023/04/25 02:10:39;;;;;;;9.33;2.50;;;8.50;99.90;;;;;;5071261;28;20636;-70
2023/04/25 02:13:05;;;;;;;2.80;2.40;;;8.50;99.90;;;;;;5071214;28;20474;-70
2023/04/25 02:15:31;;;;;;;3.67;2.53;;;8.50;99.90;;;;;;5071308;28;20473;-70
2023/04/25 02:17:57;;;;;;;3.90;2.50;;;8.60;99.90;;;;;;5071337;28;20414;-70
2023/04/25 02:20:24;;;;;;;7.10;2.93;;;8.60;99.90;;;;;;5071399;28;20744;-71
2023/04/25 02:22:50;;;;;;;6.03;2.27;;;8.60;99.90;;;;;;5071374;28;20420;-70
2023/04/25 02:25:17;;;;;;;5.83;3.00;;;8.60;99.90;;;;;;5071124;28;20507;-70
2023/04/25 02:27:43;;;;;;;4.23;2.30;;;8.60;99.90;;;;;;5071138;28;20449;-70
2023/04/25 02:30:09;;;;;;;3.57;2.70;;;8.60;99.90;;;;;;5071070;28;20449;-70
2023/04/25 02:32:35;;;;;;;8.60;2.87;;;8.60;99.90;;;;;;5071024;28;20574;-70
2023/04/25 02:35:03;;;;;;;2.43;2.23;;;8.60;99.90;;;;;;5070765;28;20464;-70
2023/04/25 02:37:30;;;;;;;6.53;2.70;;;8.60;99.90;;;;;;5086397;28;20821;-70
2023/04/25 02:39:56;;;;;;;4.73;2.87;;;8.60;99.90;;;;;;5070905;28;20450;-70
2023/04/25 02:42:22;;;;;;;8.57;2.90;;;8.50;99.90;;;;;;5070981;28;20920;-70
2023/04/25 02:44:47;;;;;;;5.80;2.77;;;8.40;99.90;;;;;;5070832;28;20302;-71
2023/04/25 02:47:13;;;;;;;8.10;2.67;;;8.40;99.90;;;;;;5071249;28;20267;-71
2023/04/25 02:49:38;;;;;;;4.47;2.60;;;8.30;99.90;;;;;;5070828;28;20205;-71
2023/04/25 02:52:04;;;;;;;3.67;2.67;;;8.30;99.90;;;;;;5070703;28;20273;-71
2023/04/25 02:54:30;;;;;;;6.43;2.63;;;8.20;99.90;;;;;;5070803;28;20211;-71
2023/04/25 02:56:56;;;;;;;3.67;2.53;;;8.10;99.90;;;;;;5070093;28;20207;-71
2023/04/25 02:59:21;;;;;;;2.67;2.30;;;8.10;99.90;;;;;;5070473;28;20418;-71
2023/04/25 03:01:47;;;;;;;3.03;2.73;;;8.10;99.90;;;;;;5069242;28;20257;-71
2023/04/25 03:04:12;;;;;;;5.53;2.60;;;8.10;99.90;;;;;;5069864;28;20211;-72
2023/04/25 03:06:38;;;;;;;3.50;2.03;;;8.00;99.90;;;;;;5070259;28;20190;-71
2023/04/25 03:09:03;;;;;;;3.63;2.50;;;7.90;99.90;;;;;;5070236;28;20217;-71
2023/04/25 03:11:29;;;;;;;5.43;2.27;;;7.80;99.90;;;;;;5070475;28;20191;-72
2023/04/25 03:13:55;;;;;;;5.23;2.20;;;7.80;99.90;;;;;;5070435;28;20220;-71
2023/04/25 03:16:21;;;;;;;5.40;2.90;;;7.80;99.90;;;;;;5070812;28;20250;-71
2023/04/25 03:18:47;;;;;;;3.63;2.60;;;7.80;99.90;;;;;;5070664;28;20205;-71
2023/04/25 03:21:13;;;;;;;7.20;2.57;;;7.80;99.90;;;;;;5070700;28;20908;-72
2023/04/25 03:23:38;;;;;;;6.07;2.50;;;7.80;99.90;;;;;;5070343;28;20194;-71
2023/04/25 03:26:04;;;;;;;4.40;2.20;;;7.80;99.90;;;;;;5070287;28;20221;-71
2023/04/25 03:28:29;;;;;;;4.03;2.63;;;7.70;99.90;;;;;;5070147;28;20195;-70
2023/04/25 03:30:55;;;;;;;5.87;2.30;;;7.70;99.90;;;;;;5069696;28;20664;-71
2023/04/25 03:33:21;;;;;;;4.13;2.80;;;7.70;99.90;;;;;;5069285;28;20183;-70
2023/04/25 03:35:47;;;;;;;3.87;2.60;;;7.60;99.90;;;;;;5069096;28;20207;-71
2023/04/25 03:38:12;;;;;;;2.83;2.20;;;7.60;99.90;;;;;;5067935;28;20425;-70
2023/04/25 03:40:38;;;;;;;4.80;2.43;;;7.50;99.90;;;;;;5068805;28;20202;-71
2023/04/25 03:43:03;;;;;;;3.47;3.00;;;7.60;99.90;;;;;;5068935;28;20190;-71
2023/04/25 03:45:29;;;;;;;6.23;2.43;;;7.60;99.90;;;;;;5068862;28;20203;-71
2023/04/25 03:47:55;;;;;;;4.90;2.23;;;7.70;99.90;;;;;;5068852;28;20190;-70
2023/04/25 03:50:20;;;;;;;5.47;1.80;;;7.70;99.90;;;;;;5068872;28;20220;-71
2023/04/25 03:52:46;;;;;;;5.43;2.03;;;7.80;99.90;;;;;;5069406;28;20179;-71
2023/04/25 03:55:11;;;;;;;3.27;2.07;;;7.80;99.90;;;;;;5069107;28;20627;-70
2023/04/25 03:57:37;;;;;;;6.93;2.90;;;7.80;99.90;;;;;;5069422;28;20183;-70
2023/04/25 04:00:04;;;;;;;3.73;2.03;;;7.80;99.90;;;;;;5069318;28;20183;-71
2023/04/25 04:02:29;;;;;;;3.43;2.03;;;7.70;99.90;;;;;;5069695;28;20175;-70
2023/04/25 04:04:56;;;;;;;2.17;1.90;;;7.70;99.90;;;;;;5069089;28;20958;-69
2023/04/25 04:07:22;;;;;;;7.23;1.73;;;7.80;99.90;;;;;;5069152;28;20237;-70
2023/04/25 04:09:47;;;;;;;1.90;1.80;;;7.70;99.90;;;;;;5069364;28;20938;-70
2023/04/25 04:12:13;;;;;;;3.90;1.90;;;7.80;99.90;;;;;;5069086;28;20190;-70
2023/04/25 04:14:38;;;;;;;4.30;2.00;;;7.80;99.90;;;;;;5069294;28;20310;-70
2023/04/25 04:17:05;;;;;;;2.20;2.00;;;7.70;99.90;;;;;;5068984;28;20272;-70
2023/04/25 04:19:31;;;;;;;7.40;1.77;;;7.70;99.90;;;;;;5067669;28;20186;-71
2023/04/25 04:21:56;;;;;;;2.90;1.70;;;7.70;99.90;;;;;;5068659;28;20782;-70
2023/04/25 04:24:22;;;;;;;5.63;2.50;;;7.70;99.90;;;;;;5068365;28;20230;-70
2023/04/25 04:26:48;;;;;;;5.10;1.97;;;7.60;99.90;;;;;;5068454;28;20200;-70
2023/04/25 04:29:20;;;;;;;3.63;2.13;;;7.60;99.90;;;;;;5068442;28;20709;-70
2023/04/25 04:31:49;;;;;;;2.33;2.03;;;7.60;99.90;;;;;;5068535;28;20183;-70
2023/04/25 04:34:16;;;;;;;3.40;2.60;;;7.60;99.90;;;;;;5068380;28;20468;-70
2023/04/25 04:36:42;;;;;;;3.00;2.37;;;7.40;99.90;;;;;;5068733;28;20829;-70
2023/04/25 04:39:09;;;;;;;6.97;2.60;;;7.30;99.90;;;;;;5068410;28;20431;-71
2023/04/25 04:41:34;;;;;;;5.37;2.37;;;7.20;99.90;;;;;;5082673;28;20180;-70
2023/04/25 04:44:01;;;;;;;1.80;1.70;;;7.30;99.90;;;;;;5066620;28;20494;-70
2023/04/25 04:46:27;;;;;;;3.03;2.07;;;7.40;99.90;;;;;;5065070;28;20263;-69
2023/04/25 04:48:53;;;;;;;3.73;1.97;;;7.60;99.90;;;;;;5081859;28;20436;-69
2023/04/25 04:51:19;;;;;;;5.67;2.80;;;7.70;99.90;;;;;;5066622;28;20417;-70
2023/04/25 04:53:44;;;;;;;2.97;2.20;;;7.70;99.90;;;;;;5066684;28;20207;-70
2023/04/25 04:56:10;;;;;;;4.97;2.03;;;7.80;99.90;;;;;;5066520;28;20571;-70
2023/04/25 04:58:36;;;;;;;4.37;2.50;;;7.80;99.90;;;;;;5066704;28;20531;-70
2023/04/25 05:01:02;;;;;;;4.40;2.07;;;7.90;99.90;;;;;;5066521;28;20728;-70
2023/04/25 05:03:28;;;;;;;4.87;2.50;;;8.00;99.90;;;;;;5065147;28;20417;-69
2023/04/25 05:05:53;;;;;;;5.80;2.40;;;7.90;99.90;;;;;;5066484;28;20509;-69
2023/04/25 05:08:19;;;;;;;9.30;2.53;;;8.00;99.90;;;;;;5066286;28;20188;-70
2023/04/25 05:10:45;;;;;;;2.87;2.10;;;8.20;99.90;;;;;;5066446;28;20185;-70
2023/04/25 05:13:10;;;;;;;3.90;2.20;;;8.20;99.90;;;;;;5066370;28;20184;-69
2023/04/25 05:15:36;;;;;;;3.93;2.00;;;8.30;99.90;;;;;;5066283;28;20216;-70
2023/04/25 05:18:02;;;;;;;4.40;2.33;;;8.40;99.90;;;;;;5066461;28;20173;-70
2023/04/25 05:20:27;;;;;;;4.20;2.27;;;8.30;99.90;;;;;;5066561;28;20270;-69
2023/04/25 05:22:53;;;;;;;7.50;2.40;;;8.40;99.90;;;;;;5066393;28;20760;-70
2023/04/25 05:25:18;;;;;;;5.07;2.50;;;8.50;99.90;;;;;;5068994;28;20216;-70
2023/04/25 05:27:44;;;;;;;4.17;2.63;;;8.60;99.90;;;;;;5070037;28;20187;-70
2023/04/25 05:30:10;;;;;;;8.70;3.07;;;8.80;99.90;;;;;;5069837;28;20186;-70
2023/04/25 05:32:36;;;;;;;5.37;2.27;;;8.80;99.90;;;;;;5069924;28;20179;-70
2023/04/25 05:35:02;;;;;;;3.83;2.00;;;8.80;99.90;;;;;;5085076;28;20206;-70
2023/04/25 05:37:30;;;;;;;2.97;2.60;;;8.70;99.90;;;;;;5070014;28;20418;-70
2023/04/25 05:39:56;;;;;;;3.70;2.00;;;8.70;99.90;;;;;;5071417;28;20446;-70
2023/04/25 05:42:21;;;;;;;5.73;2.50;;;8.70;99.90;;;;;;5070439;28;20429;-70
2023/04/25 05:44:47;;;;;;;7.53;2.53;;;8.70;99.90;;;;;;5071623;28;20644;-70
2023/04/25 05:47:12;;;;;;;2.70;2.10;;;8.50;99.90;;;;;;5070503;28;20187;-70
2023/04/25 05:49:38;;;;;;;3.40;2.77;;;8.50;99.90;;;;;;5070294;28;20183;-69
2023/04/25 05:52:04;;;;;;;7.33;2.97;;;8.50;99.90;;;;;;5070025;28;20564;-70
2023/04/25 05:54:29;;;;;;;2.83;2.47;;;8.40;99.90;;;;;;5070063;28;20207;-70
2023/04/25 05:56:57;;;;;;;3.67;2.47;;;8.20;99.90;;;;;;5069937;28;20214;-69
2023/04/25 05:59:22;;;;;;;8.33;2.93;;;8.10;99.90;;;;;;5069874;28;20177;-69
2023/04/25 06:01:48;;;;;;;5.90;3.07;;;8.20;99.90;;;;;;5069762;28;20796;-70
2023/04/25 06:04:14;;;;;;;5.00;2.73;;;8.30;99.90;;;;;;5069706;28;20209;-70
2023/04/25 06:06:39;;;;;;;2.70;2.50;;;8.30;99.90;;;;;;5070379;28;20239;-69
2023/04/25 06:09:05;;;;;;;3.70;2.67;;;8.30;99.90;;;;;;5070762;28;20284;-69
2023/04/25 06:11:30;;;;;;;5.93;2.80;;;8.30;99.90;;;;;;5069404;28;20267;-69
2023/04/25 06:13:56;;;;;;;7.30;2.77;;;8.30;99.90;;;;;;5070164;28;20213;-69
2023/04/25 06:16:22;;;;;;;2.70;2.20;;;8.40;99.90;;;;;;5069432;28;20272;-69
2023/04/25 06:18:47;;;;;;;4.13;2.60;;;8.50;99.90;;;;;;5069605;28;20573;-69
2023/04/25 06:21:13;;;;;;;4.10;2.43;;;8.60;99.90;;;;;;5069611;28;20190;-69
2023/04/25 06:23:38;;;;;;;2.93;2.63;;;8.80;99.90;;;;;;5069326;28;20564;-69
2023/04/25 06:26:04;;;;;;;7.60;2.47;;;9.00;99.90;;;;;;5069399;28;20282;-69
2023/04/25 06:28:30;;;;;;;4.93;2.47;;;9.10;99.90;;;;;;5069444;28;20692;-69
2023/04/25 06:30:55;;;;;;;3.90;2.27;;;9.20;99.90;;;;;;5069540;28;21002;-69
2023/04/25 06:33:21;;;;;;;5.27;2.03;;;9.40;99.90;;;;;;5069079;28;20199;-70
2023/04/25 06:35:47;;;;;;;4.63;2.10;;;9.50;99.90;;;;;;5069033;28;20720;-70
2023/04/25 06:38:13;;;;;;;3.97;2.10;;;9.50;99.90;;;;;;5068834;28;20417;-69
2023/04/25 06:40:39;;;;;;;2.50;1.63;;;9.50;99.90;;;;;;5068376;28;20199;-69
2023/04/25 06:43:04;;;;;;;6.67;1.90;;;9.50;99.90;;;;;;5068447;28;20682;-69
2023/04/25 06:45:30;;;;;;;4.80;2.00;;;9.40;99.90;;;;;;5068452;28;20449;-70
2023/04/25 06:47:55;;;;;;;2.40;1.63;;;9.50;99.90;;;;;;5068349;28;20675;-70
2023/04/25 06:50:21;;;;;;;3.83;1.80;;;9.50;99.90;;;;;;5068268;28;20643;-69
2023/04/25 06:52:47;;;;;;;3.37;1.90;;;9.50;99.90;;;;;;5068498;28;20196;-69
2023/04/25 06:55:12;;;;;;;3.00;1.70;;;9.60;99.90;;;;;;5068221;28;20265;-70
2023/04/25 06:57:38;;;;;;;3.23;2.13;;;9.60;99.90;;;;;;5068487;28;20187;-69
2023/04/25 07:00:11;;;;;;;1.80;1.70;;;9.60;99.90;;;;;;5068180;28;20189;-69
2023/04/25 07:02:36;;;;;;;2.33;1.47;;;9.50;99.90;;;;;;5068195;28;20259;-69
2023/04/25 07:05:03;;;;;;;3.43;2.00;;;9.50;99.90;;;;;;5068161;28;20529;-69
2023/04/25 07:07:30;;;;;;;2.03;1.80;;;9.40;99.90;;;;;;5068085;28;20183;-68
2023/04/25 07:09:56;;;;;;;2.77;1.80;;;9.40;99.90;;;;;;5068166;28;20421;-69
2023/04/25 07:12:21;;;;;;;7.53;1.87;;;9.40;99.90;;;;;;5068037;28;20454;-70
2023/04/25 07:14:47;;;;;;;5.63;2.00;;;9.60;99.90;;;;;;5067988;28;20218;-69
2023/04/25 07:17:12;;;;;;;2.37;1.83;;;9.40;99.90;;;;;;5067683;28;20211;-69
2023/04/25 07:19:39;;;;;;;3.13;1.87;;;9.40;99.90;;;;;;5067810;28;20185;-69
2023/04/25 07:22:06;;;;;;;1.83;1.73;;;9.40;99.90;;;;;;5067798;28;20275;-70
2023/04/25 07:24:32;;;;;;;3.10;2.20;;;9.40;99.90;;;;;;5083028;28;20469;-70
2023/04/25 07:26:58;;;;;;;5.87;2.10;;;9.40;99.90;;;;;;5067666;28;20511;-70
2023/04/25 07:29:23;;;;;;;9.07;2.43;;;9.40;99.90;;;;;;5067742;28;20183;-69
2023/04/25 07:31:49;;;;;;;2.33;2.13;;;9.30;99.90;;;;;;5067502;28;20428;-70
2023/04/25 07:34:15;;;;;;;3.20;2.43;;;9.20;99.90;;;;;;5067864;28;20219;-69
2023/04/25 07:36:41;;;;;;;5.20;2.47;;;9.20;99.90;;;;;;5067474;28;20226;-69
2023/04/25 07:39:08;;;;;;;2.80;2.53;;;9.30;99.90;;;;;;5067385;28;20799;-69
2023/04/25 07:41:34;;;;;;;5.17;2.87;;;9.20;99.90;;;;;;5067676;28;20175;-70
2023/04/25 07:44:00;;;;;;;4.03;2.83;;;9.10;99.90;;;;;;5067606;28;20450;-69
2023/04/25 07:46:25;;;;;;;2.80;2.60;;;9.00;99.90;;;;;;5067679;28;20504;-70
2023/04/25 07:48:51;;;;;;;2.40;2.20;;;9.00;99.90;;;;;;5067274;28;20670;-70
2023/04/25 07:51:19;;;;;;;5.30;2.90;;;9.10;99.90;;;;;;5067763;28;20198;-69
2023/04/25 07:53:45;;;;;;;3.30;2.67;;;9.10;99.90;;;;;;5068029;28;20580;-70
2023/04/25 07:56:11;;;;;;;3.17;2.60;;;9.00;99.90;;;;;;5067928;28;20476;-69
2023/04/25 07:58:37;;;;;;;3.23;2.93;;;9.00;99.90;;;;;;5068185;28;20458;-70
2023/04/25 08:01:03;;;;;;;3.10;2.50;;;9.00;99.90;;;;;;5068011;28;20722;-70
2023/04/25 08:03:28;;;;;;;5.30;2.73;;;8.90;99.90;;;;;;5067795;28;20222;-69
2023/04/25 08:05:54;;;;;;;2.63;2.43;;;8.80;99.90;;;;;;5067864;28;20190;-70
2023/04/25 08:08:20;;;;;;;3.30;3.00;;;8.90;99.90;;;;;;5066463;28;20290;-69
2023/04/25 08:10:45;;;;;;;7.00;3.13;;;8.80;99.90;;;;;;5067548;28;20599;-70
2023/04/25 08:13:11;;;;;;;4.33;3.07;;;8.80;99.90;;;;;;5067389;28;20655;-70
2023/04/25 08:15:36;;;;;;;4.63;3.30;;;8.70;99.90;;;;;;5067331;28;20211;-70
2023/04/25 08:18:02;;;;;;;6.53;4.43;;;8.70;99.90;;;;;;5067657;28;20732;-70
2023/04/25 08:20:28;;;;;;;4.73;4.00;;;8.60;99.90;;;;;;5067763;28;20186;-70
2023/04/25 08:22:53;;;;;;;7.80;5.20;;;8.70;99.90;;;;;;5067718;28;20190;-70
2023/04/25 08:25:19;;;;;;;6.07;3.70;;;8.60;99.90;;;;;;5067689;28;20207;-70
2023/04/25 08:27:45;;;;;;;6.40;3.60;;;8.60;99.90;;;;;;5067849;28;20595;-70
2023/04/25 08:30:10;;;;;;;5.13;3.03;;;8.50;99.90;;;;;;5068339;28;20185;-70
2023/04/25 08:32:38;;;;;;;4.87;3.20;;;8.40;99.90;;;;;;5067755;28;20209;-70
2023/04/25 08:35:04;;;;;;;6.07;2.87;;;8.40;99.90;;;;;;5067370;28;20820;-69
2023/04/25 08:37:30;;;;;;;3.60;3.17;;;8.30;99.90;;;;;;5067376;28;20416;-70
2023/04/25 08:39:56;;;;;;;4.83;3.60;;;8.20;99.90;;;;;;5067080;28;20445;-70
2023/04/25 08:42:23;;;;;;;7.13;3.67;;;8.10;99.90;;;;;;5065587;28;20182;-70
2023/04/25 08:44:49;;;;;;;4.80;3.80;;;8.10;99.90;;;;;;5066787;28;20698;-70
2023/04/25 08:47:15;;;;;;;8.63;6.37;;;8.10;99.90;;;;;;5066864;28;20797;-70
2023/04/25 08:49:45;;;;;;;5.73;3.40;;;8.10;99.90;;;;;;5066577;28;20432;-70
2023/04/25 08:52:13;;;;;;;6.70;3.83;;;8.10;99.90;;;;;;5066702;28;20429;-70
2023/04/25 08:54:44;;;;;;;3.60;3.30;;;8.10;99.90;;;;;;5067009;28;20482;-70
2023/04/25 08:57:09;;;;;;;3.90;3.60;;;8.00;99.90;;;;;;5066931;28;20496;-69
2023/04/25 08:59:37;;;;;;;4.90;3.40;;;7.90;99.90;;;;;;5068254;28;20409;-70
2023/04/25 09:02:03;;;;;;;4.07;2.97;;;8.00;99.90;;;;;;5071263;28;20610;-69
2023/04/25 09:04:31;;;;;;;3.93;3.53;;;8.00;99.90;;;;;;5071380;28;20508;-69
2023/04/25 09:06:56;;;;;;;5.00;3.13;;;8.00;99.90;;;;;;5071376;28;20422;-70
2023/04/25 09:09:23;;;;;;;5.80;3.30;;;8.00;99.90;;;;;;5071164;28;20436;-69
2023/04/25 09:11:49;;;;;;;7.00;3.43;;;8.00;99.90;;;;;;5071005;28;20677;-68
2023/04/25 09:14:15;;;;;;;3.13;2.90;;;8.10;99.90;;;;;;5070714;28;20442;-71
2023/04/25 09:16:55;;;;;;;3.57;3.27;;;8.10;99.90;;;;;;5070568;28;20491;-71
2023/04/25 09:19:26;;;;;;;2.97;2.67;;;8.10;99.90;;;;;;5070339;28;20179;-70
2023/04/25 09:21:56;;;;;;;2.47;2.07;;;8.00;99.90;;;;;;5070415;28;20417;-71
2023/04/25 09:24:49;;;;;;;3.37;2.80;;;8.00;99.90;;;;;;5070102;28;20449;-71
2023/04/25 09:27:20;;;;;;;2.63;2.17;;;8.10;99.90;;;;;;5070058;28;20440;-70
2023/04/25 09:29:46;;;;;;;2.07;1.97;;;8.00;99.90;;;;;;5069995;28;20421;-71
2023/04/25 09:32:12;;;;;;;2.30;2.07;;;8.00;99.90;;;;;;5069886;28;20787;-70
2023/04/25 09:34:42;;;;;;;3.87;2.47;;;8.00;99.90;;;;;;5069985;28;20752;-71
2023/04/25 09:37:10;;;;;;;2.83;2.23;;;8.20;99.90;;;;;;5069681;28;20461;-70
2023/04/25 09:39:37;;;;;;;3.80;2.50;;;8.20;99.90;;;;;;5069760;28;20424;-70
2023/04/25 09:42:03;;;;;;;1.50;1.30;;;8.20;99.90;;;;;;5069588;28;20426;-70
2023/04/25 09:44:29;;;;;;;3.93;1.77;;;8.20;99.90;;;;;;5069712;28;20808;-70
2023/04/25 09:46:55;;;;;;;1.67;1.57;;;8.10;99.90;;;;;;5069789;28;20425;-70
2023/04/25 09:49:21;;;;;;;1.40;1.30;;;8.10;99.90;;;;;;5069684;28;20606;-69
2023/04/25 09:52:00;;;;;;;1.63;1.43;;;8.00;99.90;;;;;;5069428;28;20195;-70
2023/04/25 09:54:26;;;;;;;2.70;2.50;;;8.10;99.90;;;;;;5069713;28;20456;-71
2023/04/25 09:56:53;;;;;;;2.73;2.53;;;8.20;99.90;;;;;;5069530;28;20472;-70
2023/04/25 09:59:24;;;;;;;4.67;2.50;;;8.10;99.90;;;;;;5069449;28;20446;-70
2023/04/25 10:01:51;;;;;;;3.50;3.20;;;8.10;99.90;;;;;;5069601;28;20421;-69
2023/04/25 10:04:25;;;;;;;6.67;3.50;;;8.20;99.90;;;;;;5069217;28;20877;-70
2023/04/25 10:06:53;;;;;;;5.67;2.80;;;8.00;99.90;;;;;;5069890;28;20436;-70
2023/04/25 10:09:21;;;;;;;4.00;3.10;;;8.00;99.90;;;;;;5069501;28;20542;-70
2023/04/25 10:11:50;;;;;;;3.73;3.30;;;7.90;99.90;;;;;;5069053;28;20425;-71
2023/04/25 10:14:17;;;;;;;3.10;2.90;;;7.90;99.90;;;;;;5069085;28;20472;-70
2023/04/25 10:16:42;;;;;;;3.57;2.87;;;7.80;99.90;;;;;;5069679;28;20609;-69
2023/04/25 10:19:09;;;;;;;3.33;2.90;;;7.80;99.90;;;;;;5069114;28;20981;-70
2023/04/25 10:21:44;;;;;;;2.80;2.60;;;7.70;99.90;;;;;;5067651;28;20425;-71
2023/04/25 10:24:10;;;;;;;2.70;2.40;;;7.60;99.90;;;;;;5068934;28;20986;-71
2023/04/25 10:26:36;;;;;;;2.73;2.43;;;7.60;99.90;;;;;;5068859;28;20434;-70
2023/04/25 10:29:03;;;;;;;1.80;1.43;;;7.50;99.90;;;;;;5068980;28;20242;-70
2023/04/25 10:31:31;;;;;;;1.40;1.30;;;7.30;99.90;;;;;;5068984;28;20222;-70
2023/04/25 10:33:59;;;;;;;1.23;1.00;;;7.40;99.90;;;;;;5069104;28;20445;-70
2023/04/25 10:36:27;;;;;;;1.47;1.00;;;7.40;99.90;;;;;;5068596;28;20464;-70
2023/04/25 10:38:54;;;;;;;1.57;1.20;;;7.30;99.90;;;;;;5068834;28;20422;-70
2023/04/25 10:41:21;;;;;;;1.27;1.00;;;7.40;99.90;;;;;;5068886;28;20495;-70
2023/04/25 10:43:48;;;;;;;1.20;1.10;;;7.30;99.90;;;;;;5068603;28;20441;-70
2023/04/25 10:46:28;;;;;;;0.90;0.90;;;7.40;99.90;;;;;;5068862;28;20475;-70
2023/04/25 10:49:00;;;;;;;0.90;0.90;;;7.40;99.90;;;;;;5068603;28;20464;-70
2023/04/25 10:51:28;;;;;;;1.20;1.10;;;7.30;99.90;;;;;;5068723;28;20429;-70
2023/04/25 10:54:00;;;;;;;1.63;1.00;;;7.20;99.90;;;;;;5068711;28;20479;-70
2023/04/25 10:56:26;;;;;;;1.30;1.20;;;7.10;99.90;;;;;;5068971;28;20456;-70
2023/04/25 10:59:06;;;;;;;1.30;1.20;;;7.20;99.90;;;;;;5069086;28;20421;-70
2023/04/25 11:01:45;;;;;;;2.33;1.00;;;7.10;99.90;;;;;;5068795;28;20538;-70
2023/04/25 11:04:29;;;;;;;1.57;1.47;;;7.30;99.90;;;;;;5068390;28;20448;-70
2023/04/25 11:06:57;;;;;;;1.50;1.40;;;7.30;99.90;;;;;;5068350;28;21199;-69
2023/04/25 11:09:24;;;;;;;1.80;1.70;;;7.30;99.90;;;;;;5068474;28;20425;-70
2023/04/25 11:11:55;;;;;;;1.60;1.50;;;7.10;99.90;;;;;;5067154;28;20467;-70
2023/04/25 11:14:21;;;;;;;1.80;1.70;;;7.10;99.90;;;;;;5067880;28;20521;-70
2023/04/25 11:16:47;;;;;;;4.60;1.40;;;7.10;99.90;;;;;;5067794;28;20927;-69
2023/04/25 11:19:12;;;;;;;1.23;1.13;;;7.20;99.90;;;;;;5067948;28;20789;-69
2023/04/25 11:21:38;;;;;;;3.97;1.23;;;7.10;99.90;;;;;;5067631;28;20187;-69
2023/04/25 11:24:04;;;;;;;1.80;0.93;;;7.10;99.90;;;;;;5067754;28;20207;-69
2023/04/25 11:26:30;;;;;;;1.23;1.00;;;7.20;99.90;;;;;;5067744;28;20249;-70
2023/04/25 11:29:02;;;;;;;1.33;1.10;;;7.10;99.90;;;;;;5067683;28;20527;-69
2023/04/25 11:31:29;;;;;;;0.80;0.70;;;7.10;99.90;;;;;;5067858;28;20492;-69
2023/04/25 11:33:58;;;;;;;0.80;0.60;;;7.00;99.90;;;;;;5067549;28;20908;-70
2023/04/25 11:36:25;;;;;;;0.70;0.60;;;6.90;99.90;;;;;;5067421;28;20469;-69
2023/04/25 11:38:53;;;;;;;1.80;0.60;;;7.00;99.90;;;;;;5067623;28;20948;-70
2023/04/25 11:41:22;;;;;;;1.43;0.73;;;7.00;99.90;;;;;;5067232;28;20888;-69
2023/04/25 11:43:48;;;;;;;1.03;0.83;;;7.10;99.90;;;;;;5067222;28;20811;-69
2023/04/25 11:46:14;;;;;;;0.80;0.60;;;7.20;99.90;;;;;;5067429;28;20467;-69
2023/04/25 11:48:41;;;;;;;1.10;0.77;;;7.10;99.90;;;;;;5067334;28;20876;-69
2023/04/25 11:51:07;;;;;;;1.80;0.60;;;7.20;99.90;;;;;;5067055;28;20240;-69
2023/04/25 11:53:33;;;;;;;0.77;0.60;;;7.20;99.90;;;;;;5067465;28;20421;-69
2023/04/25 11:55:58;;;;;;;0.80;0.73;;;7.20;99.90;;;;;;5067162;28;20623;-70
2023/04/25 11:58:25;;;;;;;1.87;0.80;;;7.30;99.90;;;;;;5067171;28;20179;-70
2023/04/25 12:00:51;;;;;;;1.20;0.80;;;7.10;99.90;;;;;;5067810;28;20266;-70
2023/04/25 12:03:18;;;;;;;1.00;0.57;;;7.20;99.90;;;;;;5067192;28;20910;-69
2023/04/25 12:05:45;;;;;;;0.80;0.67;;;7.30;99.90;;;;;;5067048;28;20210;-69
2023/04/25 12:08:14;;;;;;;2.43;1.30;;;7.30;99.90;;;;;;5067390;28;20424;-70
2023/04/25 12:10:41;;;;;;;0.80;0.70;;;7.50;99.90;;;;;;5067079;28;20423;-70
2023/04/25 12:13:21;;;;;;;0.80;0.80;;;7.30;99.90;;;;;;5067117;28;20425;-70
2023/04/25 12:15:47;;;;;;;0.80;0.70;;;7.20;99.90;;;;;;5066886;28;20534;-70
2023/04/25 12:18:13;;;;;;;1.90;0.80;;;7.20;99.90;;;;;;5066971;28;20421;-69
2023/04/25 12:20:38;;;;;;;0.70;0.60;;;7.30;99.90;;;;;;5066871;28;20422;-70
2023/04/25 12:23:07;;;;;;;0.70;0.50;;;7.30;99.90;;;;;;5067073;28;20195;-70
2023/04/25 12:25:44;;;;;;;0.80;0.60;;;7.40;99.90;;;;;;5067478;28;20214;-71
2023/04/25 12:28:23;;;;;;;0.83;0.83;;;7.40;99.90;;;;;;5067314;28;20513;-70
2023/04/25 12:31:04;;;;;;;14.47;9.00;;;7.40;99.90;;;;;;5065606;28;20429;-70
2023/04/25 12:33:40;;;;;;;14.10;8.03;;;7.50;99.90;;;;;;5067550;28;20428;-70
2023/04/25 12:36:11;;;;;;;2.93;1.67;;;7.40;99.90;;;;;;5067645;28;20499;-70
2023/04/25 12:38:41;;;;;;;0.80;0.70;;;7.50;99.90;;;;;;5067244;28;20846;-70
2023/04/25 12:41:08;;;;;;;1.23;0.93;;;7.60;99.90;;;;;;5066744;28;21058;-70
2023/04/25 12:43:34;;;;;;;7.83;4.63;;;7.70;99.90;;;;;;5066731;28;20935;-70
2023/04/25 12:46:00;;;;;;;3.83;3.53;;;7.80;99.90;;;;;;5066911;28;20418;-70
2023/04/25 12:48:25;;;;;;;1.60;1.50;;;8.00;99.90;;;;;;5066753;28;20476;-70
2023/04/25 12:50:51;;;;;;;1.43;0.87;;;7.90;99.90;;;;;;5066803;28;20429;-70
2023/04/25 12:53:24;;;;;;;1.63;1.30;;;7.80;99.90;;;;;;5065131;28;20213;-70
2023/04/25 12:55:50;;;;;;;1.60;1.30;;;7.80;99.90;;;;;;5066474;28;20479;-70